Time;durP1;ratioP1;P1;durP2;ratioP2;P2;SDS_P1;SDS_P2;PMS_P1;PMS_P2;Temp;Humidity;BMP_temperature;BMP_pressure;BME280_temperature;BME280_humidity;BME280_pressure;Samples;Min_cycle;Max_cycle;Signal;HPM_P1;HPM_P2
2022/03/14 00:02:14;;;;;;;15.37;11.37;;;;;;;;;;10288140;28;20014;-70
2022/03/14 00:07:15;;;;;;;30.92;11.73;;;;;;;;;;10288070;28;20077;-71
2022/03/14 00:12:25;;;;;;;20.00;11.02;;;;;;;;;;10287654;28;20495;-70
2022/03/14 00:17:26;;;;;;;19.33;11.82;;;;;;;;;;10287879;28;20023;-77
2022/03/14 00:22:27;;;;;;;15.30;9.68;;;;;;;;;;10287111;28;20027;-72
2022/03/14 00:27:27;;;;;;;15.27;9.50;;;;;;;;;;10287631;28;20031;-71
2022/03/14 00:32:27;;;;;;;23.15;12.88;;;;;;;;;;10290558;28;20051;-71
2022/03/14 00:37:28;;;;;;;12.68;9.82;;;;;;;;;;10302785;28;20397;-73
2022/03/14 00:42:28;;;;;;;13.27;9.07;;;;;;;;;;10318089;28;20599;-70
2022/03/14 00:47:28;;;;;;;8.98;6.90;;;;;;;;;;10326876;28;20643;-70
2022/03/14 00:52:29;;;;;;;16.52;10.85;;;;;;;;;;10326300;28;20038;-73
2022/03/14 00:57:29;;;;;;;15.30;11.23;;;;;;;;;;10326415;28;20033;-70
2022/03/14 01:02:30;;;;;;;12.10;10.00;;;;;;;;;;10327467;28;20032;-71
2022/03/14 01:07:34;;;;;;;16.03;11.60;;;;;;;;;;10326266;28;20045;-70
2022/03/14 01:12:35;;;;;;;13.45;10.60;;;;;;;;;;10325474;28;20747;-74
2022/03/14 01:17:36;;;;;;;13.47;9.83;;;;;;;;;;10326797;28;20018;-73
2022/03/14 01:22:36;;;;;;;14.20;11.82;;;;;;;;;;10324781;28;20032;-70
2022/03/14 01:27:37;;;;;;;32.92;18.85;;;;;;;;;;10326188;28;20031;-69
2022/03/14 01:32:37;;;;;;;31.30;23.02;;;;;;;;;;10324615;28;20057;-72
2022/03/14 01:37:37;;;;;;;33.58;22.17;;;;;;;;;;10324014;28;20443;-71
2022/03/14 01:42:38;;;;;;;39.60;22.17;;;;;;;;;;10324678;28;20428;-75
2022/03/14 01:47:40;;;;;;;40.37;21.90;;;;;;;;;;10324351;28;20261;-74
2022/03/14 01:52:41;;;;;;;38.95;24.45;;;;;;;;;;10323868;28;20040;-70
2022/03/14 01:57:41;;;;;;;50.22;22.50;;;;;;;;;;10325385;28;20033;-74
2022/03/14 02:02:42;;;;;;;39.22;22.92;;;;;;;;;;10324016;28;20050;-73
2022/03/14 02:07:43;;;;;;;27.40;18.23;;;;;;;;;;10323593;28;20500;-72
2022/03/14 02:12:44;;;;;;;28.97;15.93;;;;;;;;;;10323286;28;20113;-71
2022/03/14 02:17:44;;;;;;;34.05;21.77;;;;;;;;;;10324266;28;20105;-70
2022/03/14 02:22:44;;;;;;;32.50;24.52;;;;;;;;;;10324421;28;20501;-72
2022/03/14 02:27:45;;;;;;;26.27;19.48;;;;;;;;;;10322936;28;20025;-72
2022/03/14 02:32:45;;;;;;;25.97;17.23;;;;;;;;;;10322221;28;20053;-70
2022/03/14 02:37:45;;;;;;;19.30;13.18;;;;;;;;;;10323000;28;20035;-71
2022/03/14 02:42:46;;;;;;;16.35;14.65;;;;;;;;;;10322692;28;20033;-73
2022/03/14 02:47:47;;;;;;;23.83;15.27;;;;;;;;;;10322933;28;20041;-71
2022/03/14 02:52:47;;;;;;;17.67;15.77;;;;;;;;;;10323755;28;20500;-73
2022/03/14 02:57:47;;;;;;;11.57;10.50;;;;;;;;;;10327644;28;20023;-71
2022/03/14 03:02:48;;;;;;;17.85;16.33;;;;;;;;;;10314295;28;20037;-72
2022/03/14 03:07:49;;;;;;;16.45;12.48;;;;;;;;;;10331529;28;20050;-72
2022/03/14 03:12:49;;;;;;;14.10;12.60;;;;;;;;;;10331701;28;20416;-71
2022/03/14 03:17:50;;;;;;;12.80;8.50;;;;;;;;;;10330063;28;20030;-71
2022/03/14 03:22:50;;;;;;;10.23;8.82;;;;;;;;;;10329689;28;20026;-71
2022/03/14 03:27:51;;;;;;;17.75;15.90;;;;;;;;;;10330836;28;20034;-76
2022/03/14 03:32:51;;;;;;;16.87;11.13;;;;;;;;;;10331014;28;20050;-69
2022/03/14 03:37:51;;;;;;;12.70;11.00;;;;;;;;;;10329059;28;20327;-77
2022/03/14 03:42:52;;;;;;;21.00;17.35;;;;;;;;;;10328416;28;20054;-76
2022/03/14 03:47:53;;;;;;;18.63;17.23;;;;;;;;;;10328856;28;20037;-73
2022/03/14 03:52:53;;;;;;;14.32;12.90;;;;;;;;;;10329182;28;20293;-74
2022/03/14 03:57:54;;;;;;;21.08;19.25;;;;;;;;;;10312286;28;20480;-73
2022/03/14 04:02:54;;;;;;;14.98;13.43;;;;;;;;;;10328268;28;20456;-69
2022/03/14 04:07:56;;;;;;;16.00;12.00;;;;;;;;;;10328074;28;20394;-71
2022/03/14 04:13:03;;;;;;;17.77;13.27;;;;;;;;;;10328175;28;20473;-78
2022/03/14 04:18:04;;;;;;;22.20;13.55;;;;;;;;;;10327570;28;20065;-70
2022/03/14 04:23:04;;;;;;;16.85;15.02;;;;;;;;;;10327588;28;20130;-70
2022/03/14 04:28:04;;;;;;;17.27;14.37;;;;;;;;;;10328213;28;20606;-73
2022/03/14 04:33:07;;;;;;;20.00;12.23;;;;;;;;;;10303426;28;20405;-71
2022/03/14 04:38:07;;;;;;;21.05;18.92;;;;;;;;;;10286767;28;20034;-71
2022/03/14 04:43:08;;;;;;;20.40;14.13;;;;;;;;;;10304550;28;20026;-71
2022/03/14 04:48:09;;;;;;;23.38;20.90;;;;;;;;;;10326293;28;20477;-72
2022/03/14 04:53:10;;;;;;;19.80;15.32;;;;;;;;;;10325781;28;20044;-74
2022/03/14 04:58:14;;;;;;;19.63;9.90;;;;;;;;;;10289920;28;20027;-74
2022/03/14 05:03:14;;;;;;;18.38;11.20;;;;;;;;;;10286030;28;20449;-71
2022/03/14 05:08:14;;;;;;;19.08;12.98;;;;;;;;;;10285404;28;20027;-75
2022/03/14 05:13:15;;;;;;;18.13;15.20;;;;;;;;;;10286569;28;20409;-70
2022/03/14 05:18:15;;;;;;;23.17;20.80;;;;;;;;;;10296113;28;20067;-74
2022/03/14 05:23:15;;;;;;;13.05;11.15;;;;;;;;;;10324693;28;20030;-71
2022/03/14 05:28:16;;;;;;;23.23;14.00;;;;;;;;;;10324265;28;20085;-75
2022/03/14 05:33:16;;;;;;;20.75;15.73;;;;;;;;;;10324400;28;20837;-75
2022/03/14 05:38:16;;;;;;;17.92;15.38;;;;;;;;;;10323898;28;20034;-75
2022/03/14 05:43:17;;;;;;;19.00;12.63;;;;;;;;;;10325051;28;20073;-73
2022/03/14 05:48:17;;;;;;;19.23;13.52;;;;;;;;;;10323269;28;20041;-77
2022/03/14 05:53:17;;;;;;;24.58;12.75;;;;;;;;;;10323172;28;20611;-75
2022/03/14 05:58:18;;;;;;;33.63;13.38;;;;;;;;;;10323065;28;20034;-74
2022/03/14 06:03:20;;;;;;;26.55;15.82;;;;;;;;;;10321693;28;20481;-74
2022/03/14 06:08:20;;;;;;;32.33;15.05;;;;;;;;;;10322601;28;20065;-71
2022/03/14 06:13:21;;;;;;;33.53;17.27;;;;;;;;;;10323562;28;20513;-70
2022/03/14 06:18:22;;;;;;;33.65;18.02;;;;;;;;;;10322677;28;20023;-70
2022/03/14 06:23:22;;;;;;;51.20;18.75;;;;;;;;;;10322257;28;20026;-74
2022/03/14 06:28:23;;;;;;;59.97;23.48;;;;;;;;;;10321963;28;20026;-73
2022/03/14 06:33:23;;;;;;;55.83;28.27;;;;;;;;;;10318706;28;20050;-70
2022/03/14 06:38:23;;;;;;;59.00;24.63;;;;;;;;;;10317198;28;20501;-72
2022/03/14 06:43:24;;;;;;;54.50;25.33;;;;;;;;;;10321216;28;20307;-75
2022/03/14 06:48:25;;;;;;;67.20;26.45;;;;;;;;;;10320951;28;20109;-73
2022/03/14 06:53:25;;;;;;;57.13;25.63;;;;;;;;;;10321494;28;20488;-72
2022/03/14 06:58:26;;;;;;;42.63;22.15;;;;;;;;;;10322814;28;20026;-70
2022/03/14 07:03:27;;;;;;;54.28;21.90;;;;;;;;;;10321171;28;20237;-72
2022/03/14 07:08:27;;;;;;;42.75;22.83;;;;;;;;;;10321711;28;20424;-70
2022/03/14 07:13:27;;;;;;;46.30;22.90;;;;;;;;;;10321312;28;20038;-71
2022/03/14 07:18:30;;;;;;;46.78;20.50;;;;;;;;;;10321636;28;20372;-70
2022/03/14 07:23:30;;;;;;;33.28;15.27;;;;;;;;;;10314276;28;20022;-69
2022/03/14 07:28:31;;;;;;;27.93;14.77;;;;;;;;;;10318256;28;20104;-71
2022/03/14 07:33:31;;;;;;;31.23;16.30;;;;;;;;;;10302337;28;20169;-74
2022/03/14 07:38:31;;;;;;;32.22;13.35;;;;;;;;;;10297714;28;20106;-74
2022/03/14 07:43:32;;;;;;;22.83;11.93;;;;;;;;;;10321617;28;20120;-75
2022/03/14 07:48:32;;;;;;;21.67;9.55;;;;;;;;;;10326619;28;20067;-69
2022/03/14 07:53:33;;;;;;;19.95;9.60;;;;;;;;;;10326045;28;20054;-75
2022/03/14 07:58:33;;;;;;;22.87;9.30;;;;;;;;;;10325953;28;20018;-70
2022/03/14 08:03:33;;;;;;;16.75;9.80;;;;;;;;;;10321922;28;20030;-74
2022/03/14 08:08:34;;;;;;;17.85;8.20;;;;;;;;;;10286383;28;20030;-72
2022/03/14 08:13:34;;;;;;;19.77;10.32;;;;;;;;;;10286992;28;20031;-74
2022/03/14 08:18:34;;;;;;;20.80;9.70;;;;;;;;;;10323888;28;20027;-75
2022/03/14 08:23:36;;;;;;;20.67;8.77;;;;;;;;;;10342339;28;20281;-74
2022/03/14 08:28:36;;;;;;;17.83;9.05;;;;;;;;;;10325531;28;20504;-76
2022/03/14 08:33:41;;;;;;;23.70;10.27;;;;;;;;;;10324364;28;20149;-74
2022/03/14 08:38:41;;;;;;;26.98;11.15;;;;;;;;;;10326349;28;20022;-74
2022/03/14 08:43:45;;;;;;;24.52;11.68;;;;;;;;;;10324355;28;20022;-72
2022/03/14 08:48:45;;;;;;;21.75;9.82;;;;;;;;;;10325482;28;20062;-77
2022/03/14 08:53:45;;;;;;;27.13;10.65;;;;;;;;;;10325066;28;20180;-71
2022/03/14 08:58:46;;;;;;;26.05;11.80;;;;;;;;;;10324276;28;20017;-75
2022/03/14 09:03:46;;;;;;;28.50;12.55;;;;;;;;;;10325558;28;20101;-75
2022/03/14 09:08:47;;;;;;;24.33;12.60;;;;;;;;;;10324385;28;20018;-71
2022/03/14 09:13:47;;;;;;;30.45;12.32;;;;;;;;;;10324304;28;20027;-74
2022/03/14 09:18:47;;;;;;;25.33;12.27;;;;;;;;;;10325458;28;20018;-75
2022/03/14 09:23:48;;;;;;;27.43;12.20;;;;;;;;;;10323373;28;20272;-70
2022/03/14 09:28:50;;;;;;;10.38;6.07;;;;;;;;;;10315449;28;20567;-71
2022/03/14 09:33:50;;;;;;;9.90;5.95;;;;;;;;;;10319689;28;20441;-72
2022/03/14 09:38:50;;;;;;;11.50;6.13;;;;;;;;;;10322538;28;20041;-75
2022/03/14 09:43:52;;;;;;;9.03;4.07;;;;;;;;;;10344697;28;20041;-70
2022/03/14 09:48:54;;;;;;;12.02;5.50;;;;;;;;;;10320149;28;20367;-71
2022/03/14 09:53:55;;;;;;;10.32;4.97;;;;;;;;;;10317885;28;20085;-70
2022/03/14 09:58:55;;;;;;;8.13;4.35;;;;;;;;;;10316612;28;20106;-71
2022/03/14 10:03:56;;;;;;;9.27;4.90;;;;;;;;;;10314627;28;20019;-71
2022/03/14 10:08:56;;;;;;;6.88;3.83;;;;;;;;;;10315035;28;20033;-72
2022/03/14 10:13:57;;;;;;;8.83;3.43;;;;;;;;;;10317711;28;20023;-71
2022/03/14 10:18:58;;;;;;;6.47;4.03;;;;;;;;;;10318852;28;20262;-70
2022/03/14 10:23:59;;;;;;;6.28;3.70;;;;;;;;;;10319989;28;20100;-73
2022/03/14 10:29:00;;;;;;;6.75;3.58;;;;;;;;;;10318011;28;20125;-70
2022/03/14 10:34:06;;;;;;;4.68;3.10;;;;;;;;;;10317734;28;20081;-69
2022/03/14 10:39:12;;;;;;;11.32;3.42;;;;;;;;;;10306456;28;20115;-70
2022/03/14 10:44:21;;;;;;;6.85;4.00;;;;;;;;;;10280264;28;20077;-75
2022/03/14 10:49:26;;;;;;;7.93;4.22;;;;;;;;;;10279627;28;20027;-73
2022/03/14 10:54:27;;;;;;;12.00;5.50;;;;;;;;;;10301059;28;20030;-73
2022/03/14 10:59:33;;;;;;;8.55;4.53;;;;;;;;;;10319823;28;20508;-73
2022/03/14 11:04:40;;;;;;;8.18;3.38;;;;;;;;;;10309200;28;20143;-70
2022/03/14 11:09:44;;;;;;;7.20;4.10;;;;;;;;;;10306191;28;20030;-71
2022/03/14 11:14:51;;;;;;;8.32;4.30;;;;;;;;;;10316884;28;20045;-73
2022/03/14 11:19:51;;;;;;;6.03;3.95;;;;;;;;;;10283996;28;20029;-70
2022/03/14 11:24:53;;;;;;;9.90;3.92;;;;;;;;;;10322427;28;20032;-71
2022/03/14 11:30:07;;;;;;;7.93;4.13;;;;;;;;;;10325467;28;20137;-75
2022/03/14 11:35:07;;;;;;;10.80;4.70;;;;;;;;;;10285908;28;1231263;-73
2022/03/14 11:40:08;;;;;;;8.57;4.80;;;;;;;;;;10304902;28;20433;-74
2022/03/14 11:45:09;;;;;;;10.45;5.28;;;;;;;;;;10304228;28;20027;-71
2022/03/14 11:50:10;;;;;;;10.93;5.80;;;;;;;;;;10286800;28;20208;-72
2022/03/14 11:55:24;;;;;;;11.20;6.50;;;;;;;;;;10302911;28;20050;-70
2022/03/14 12:00:27;;;;;;;11.43;6.32;;;;;;;;;;10308045;28;20061;-72
2022/03/14 12:05:30;;;;;;;15.52;7.47;;;;;;;;;;10326423;28;20041;-73
2022/03/14 12:10:31;;;;;;;15.20;8.07;;;;;;;;;;10326545;28;20030;-71
2022/03/14 12:15:42;;;;;;;17.98;8.57;;;;;;;;;;10325673;28;20037;-74
2022/03/14 12:20:42;;;;;;;15.05;7.30;;;;;;;;;;10316394;28;20029;-74
2022/03/14 12:25:42;;;;;;;11.43;6.53;;;;;;;;;;10326607;28;20042;-69
2022/03/14 12:30:47;;;;;;;10.75;6.57;;;;;;;;;;10325698;28;20050;-70
2022/03/14 12:35:48;;;;;;;10.68;6.45;;;;;;;;;;10325183;28;20061;-73
2022/03/14 12:40:48;;;;;;;12.50;7.53;;;;;;;;;;10296033;28;20023;-71
2022/03/14 12:45:51;;;;;;;15.30;7.65;;;;;;;;;;10284273;28;20144;-75
2022/03/14 12:50:52;;;;;;;15.07;7.63;;;;;;;;;;10301026;28;20026;-74
2022/03/14 12:55:52;;;;;;;12.93;7.50;;;;;;;;;;10284868;28;20505;-74
2022/03/14 13:01:03;;;;;;;13.52;7.18;;;;;;;;;;10307624;28;20034;-74
2022/03/14 13:06:04;;;;;;;15.15;6.80;;;;;;;;;;10323821;28;20026;-72
2022/03/14 13:11:06;;;;;;;10.82;6.25;;;;;;;;;;10321537;28;20112;-75
2022/03/14 13:16:07;;;;;;;12.02;6.63;;;;;;;;;;10300216;28;20022;-73
2022/03/14 13:21:27;;;;;;;12.13;7.93;;;;;;;;;;10299307;28;20015;-73
2022/03/14 13:26:27;;;;;;;16.88;6.35;;;;;;;;;;10299303;28;20030;-72
2022/03/14 13:31:32;;;;;;;13.13;6.22;;;;;;;;;;10299330;28;20053;-74
2022/03/14 13:36:34;;;;;;;10.98;6.50;;;;;;;;;;10299265;28;20080;-75
2022/03/14 13:41:35;;;;;;;12.98;7.18;;;;;;;;;;10298448;28;20030;-73
2022/03/14 13:46:35;;;;;;;12.30;6.85;;;;;;;;;;10315636;28;20037;-70
2022/03/14 13:51:37;;;;;;;12.43;6.70;;;;;;;;;;10321359;28;20018;-71
2022/03/14 13:56:41;;;;;;;14.73;7.63;;;;;;;;;;10321552;28;20054;-71
2022/03/14 14:01:42;;;;;;;12.27;7.20;;;;;;;;;;10321287;28;20029;-70
2022/03/14 14:06:47;;;;;;;11.55;6.63;;;;;;;;;;10321053;28;20022;-71
2022/03/14 14:11:57;;;;;;;11.68;6.55;;;;;;;;;;10322130;28;20354;-72
2022/03/14 14:17:10;;;;;;;12.52;6.55;;;;;;;;;;10322250;28;20386;-71
2022/03/14 14:22:11;;;;;;;15.07;7.28;;;;;;;;;;10320426;28;20049;-76
2022/03/14 14:27:15;;;;;;;22.98;7.85;;;;;;;;;;10321386;28;20512;-75
2022/03/14 14:32:20;;;;;;;14.20;6.38;;;;;;;;;;10318248;28;20108;-73
2022/03/14 14:37:21;;;;;;;12.02;7.40;;;;;;;;;;10320421;28;20121;-75
2022/03/14 14:42:22;;;;;;;14.43;6.65;;;;;;;;;;10321833;28;20019;-73
2022/03/14 14:47:22;;;;;;;13.10;6.20;;;;;;;;;;10321096;28;20014;-75
2022/03/14 14:52:22;;;;;;;14.50;6.53;;;;;;;;;;10323885;28;20050;-76
2022/03/14 14:57:23;;;;;;;13.55;7.70;;;;;;;;;;10328021;28;20026;-75
2022/03/14 15:02:24;;;;;;;16.23;7.93;;;;;;;;;;10327542;28;20022;-75
2022/03/14 15:07:26;;;;;;;12.37;6.67;;;;;;;;;;10328686;28;20026;-72
2022/03/14 15:12:26;;;;;;;12.98;6.57;;;;;;;;;;10328042;28;20083;-74
2022/03/14 15:17:26;;;;;;;13.02;6.45;;;;;;;;;;10328895;28;20032;-70
2022/03/14 15:22:27;;;;;;;20.37;6.93;;;;;;;;;;10338211;28;20030;-76
2022/03/14 15:27:27;;;;;;;18.58;7.32;;;;;;;;;;10333153;28;20104;-71
2022/03/14 15:32:27;;;;;;;9.95;6.60;;;;;;;;;;10318046;28;20061;-74
2022/03/14 15:37:28;;;;;;;10.75;5.97;;;;;;;;;;10341692;28;20034;-72
2022/03/14 15:42:29;;;;;;;11.52;6.45;;;;;;;;;;10326645;28;20492;-74
2022/03/14 15:47:29;;;;;;;16.40;7.40;;;;;;;;;;10325448;28;20029;-70
2022/03/14 15:52:29;;;;;;;13.95;8.07;;;;;;;;;;10325998;28;20583;-72
2022/03/14 15:57:30;;;;;;;13.70;7.53;;;;;;;;;;10320643;28;20386;-69
2022/03/14 16:02:31;;;;;;;13.52;8.07;;;;;;;;;;10285967;28;20030;-75
2022/03/14 16:07:32;;;;;;;14.93;8.52;;;;;;;;;;10286072;28;20074;-75
2022/03/14 16:12:32;;;;;;;27.80;8.27;;;;;;;;;;10286959;28;20519;-75
2022/03/14 16:17:32;;;;;;;22.55;8.88;;;;;;;;;;10309717;28;20026;-74
2022/03/14 16:22:33;;;;;;;12.57;6.93;;;;;;;;;;10301721;28;20025;-71
2022/03/14 16:27:34;;;;;;;22.95;10.32;;;;;;;;;;10300335;28;20489;-74
2022/03/14 16:32:34;;;;;;;17.90;10.85;;;;;;;;;;10283789;28;20047;-73
2022/03/14 16:37:35;;;;;;;20.52;11.88;;;;;;;;;;10314329;28;20377;-70
2022/03/14 16:42:39;;;;;;;23.10;13.27;;;;;;;;;;10308227;28;20021;-69
2022/03/14 16:47:39;;;;;;;20.17;11.88;;;;;;;;;;10325149;28;20026;-71
2022/03/14 16:52:40;;;;;;;31.37;12.57;;;;;;;;;;10324865;28;20403;-70
2022/03/14 16:57:41;;;;;;;22.03;12.30;;;;;;;;;;10324748;28;20277;-74
2022/03/14 17:02:42;;;;;;;30.88;14.23;;;;;;;;;;10326251;28;20022;-69
2022/03/14 17:07:42;;;;;;;20.55;11.68;;;;;;;;;;10324749;28;20018;-70
2022/03/14 17:12:42;;;;;;;28.20;13.57;;;;;;;;;;10323901;28;20092;-73
2022/03/14 17:17:43;;;;;;;31.83;17.15;;;;;;;;;;10322294;28;20444;-71
2022/03/14 17:22:43;;;;;;;37.77;14.80;;;;;;;;;;10303850;28;20416;-73
2022/03/14 17:27:44;;;;;;;32.72;15.55;;;;;;;;;;10279707;28;20485;-75
2022/03/14 17:32:44;;;;;;;32.33;15.18;;;;;;;;;;10279761;28;20137;-73
2022/03/14 17:37:45;;;;;;;33.93;15.00;;;;;;;;;;10294816;28;20030;-72
2022/03/14 17:42:45;;;;;;;46.25;15.98;;;;;;;;;;10320388;28;20265;-73
2022/03/14 17:47:45;;;;;;;42.17;14.88;;;;;;;;;;10320238;28;20463;-74
2022/03/14 17:52:46;;;;;;;40.27;18.73;;;;;;;;;;10318685;28;20023;-77
2022/03/14 17:57:46;;;;;;;37.75;20.38;;;;;;;;;;10319195;28;20265;-73
2022/03/14 18:02:47;;;;;;;43.80;23.05;;;;;;;;;;10317081;28;20023;-73
2022/03/14 18:07:47;;;;;;;55.47;23.43;;;;;;;;;;10316068;28;20022;-76
2022/03/14 18:12:48;;;;;;;49.90;23.33;;;;;;;;;;10278533;28;20413;-74
2022/03/14 18:17:48;;;;;;;50.40;24.67;;;;;;;;;;10308978;28;20089;-72
2022/03/14 18:22:49;;;;;;;49.80;25.20;;;;;;;;;;10278559;28;20262;-70
2022/03/14 18:27:49;;;;;;;59.78;26.13;;;;;;;;;;10281900;28;20126;-74
2022/03/14 18:32:50;;;;;;;54.53;26.90;;;;;;;;;;10285683;28;20046;-73
2022/03/14 18:37:50;;;;;;;65.20;28.73;;;;;;;;;;10319088;28;20563;-71
2022/03/14 18:42:50;;;;;;;63.95;31.40;;;;;;;;;;10317327;28;20023;-75
2022/03/14 18:47:50;;;;;;;58.65;27.90;;;;;;;;;;10317281;28;20095;-73
2022/03/14 18:52:51;;;;;;;68.68;30.63;;;;;;;;;;10314796;28;20034;-72
2022/03/14 18:57:51;;;;;;;59.92;26.25;;;;;;;;;;10312778;28;20022;-74
2022/03/14 19:02:52;;;;;;;52.03;24.88;;;;;;;;;;10314466;28;20101;-74
2022/03/14 19:07:52;;;;;;;77.28;24.10;;;;;;;;;;10314954;28;20102;-76
2022/03/14 19:12:53;;;;;;;62.70;28.05;;;;;;;;;;10311830;28;20022;-76
2022/03/14 19:17:54;;;;;;;50.95;21.27;;;;;;;;;;10312678;28;20495;-72
2022/03/14 19:22:54;;;;;;;59.13;21.23;;;;;;;;;;10316003;28;20014;-74
2022/03/14 19:27:55;;;;;;;52.57;20.50;;;;;;;;;;10313598;28;20026;-72
2022/03/14 19:32:55;;;;;;;59.42;24.25;;;;;;;;;;10301955;28;20397;-73
2022/03/14 19:37:56;;;;;;;35.88;16.95;;;;;;;;;;10320313;28;20026;-75
2022/03/14 19:42:56;;;;;;;40.22;22.48;;;;;;;;;;10324281;28;20619;-74
2022/03/14 19:48:01;;;;;;;53.55;21.17;;;;;;;;;;10324507;28;20014;-76
2022/03/14 19:53:01;;;;;;;35.97;17.58;;;;;;;;;;10325491;28;20026;-72
2022/03/14 19:58:02;;;;;;;36.03;17.30;;;;;;;;;;10401864;23;20058;-71
2022/03/14 20:03:02;;;;;;;37.25;16.58;;;;;;;;;;10319744;28;20027;-75
2022/03/14 20:08:02;;;;;;;30.40;14.43;;;;;;;;;;10283293;28;20034;-74
2022/03/14 20:13:03;;;;;;;28.47;14.43;;;;;;;;;;10318536;28;20497;-74
2022/03/14 20:18:03;;;;;;;31.58;15.90;;;;;;;;;;10300383;28;20137;-74
2022/03/14 20:23:04;;;;;;;27.75;15.50;;;;;;;;;;10299728;28;20027;-76
2022/03/14 20:28:04;;;;;;;30.05;15.15;;;;;;;;;;10283838;28;20396;-75
2022/03/14 20:33:05;;;;;;;23.00;12.63;;;;;;;;;;10297731;28;20026;-73
2022/03/14 20:38:05;;;;;;;21.67;11.57;;;;;;;;;;10281640;28;20269;-74
2022/03/14 20:43:06;;;;;;;23.00;12.30;;;;;;;;;;10283015;28;20492;-74
2022/03/14 20:48:06;;;;;;;23.55;12.20;;;;;;;;;;10279226;28;20041;-74
2022/03/14 20:53:07;;;;;;;22.40;11.82;;;;;;;;;;10281625;28;20027;-73
2022/03/14 20:58:07;;;;;;;24.92;12.05;;;;;;;;;;10280590;28;20050;-75
2022/03/14 21:03:07;;;;;;;24.17;11.07;;;;;;;;;;10281297;28;20023;-77
2022/03/14 21:08:09;;;;;;;20.58;12.75;;;;;;;;;;10281060;28;20286;-71
2022/03/14 21:13:16;;;;;;;24.63;12.43;;;;;;;;;;10280663;28;20124;-75
2022/03/14 21:18:21;;;;;;;28.03;12.67;;;;;;;;;;10295018;28;20011;-74
2022/03/14 21:23:24;;;;;;;19.58;11.25;;;;;;;;;;10280101;28;20034;-78
2022/03/14 21:28:25;;;;;;;22.65;11.35;;;;;;;;;;10297047;28;20033;-77
2022/03/14 21:33:27;;;;;;;20.20;12.32;;;;;;;;;;10296227;28;20065;-77
2022/03/14 21:38:27;;;;;;;22.65;13.40;;;;;;;;;;10294466;28;20023;-74
2022/03/14 21:43:28;;;;;;;24.60;11.85;;;;;;;;;;10297683;28;20031;-76
2022/03/14 21:48:29;;;;;;;20.90;12.70;;;;;;;;;;10280459;28;20481;-73
2022/03/14 21:53:29;;;;;;;27.00;15.32;;;;;;;;;;10278955;28;20030;-76
2022/03/14 21:58:31;;;;;;;42.70;19.60;;;;;;;;;;10283200;28;20540;-76
2022/03/14 22:03:32;;;;;;;44.80;23.48;;;;;;;;;;10299294;28;20027;-71
2022/03/14 22:08:32;;;;;;;40.70;21.23;;;;;;;;;;10259058;28;20451;-75
2022/03/14 22:13:33;;;;;;;47.35;23.05;;;;;;;;;;10259618;28;20035;-71
2022/03/14 22:18:35;;;;;;;45.85;23.70;;;;;;;;;;10292053;28;20034;-77
2022/03/14 22:23:35;;;;;;;48.80;22.98;;;;;;;;;;10298932;28;20513;-77
2022/03/14 22:28:35;;;;;;;42.47;22.93;;;;;;;;;;10282684;28;20374;-72
2022/03/14 22:33:36;;;;;;;46.30;23.90;;;;;;;;;;10281580;28;20685;-72
2022/03/14 22:38:36;;;;;;;45.28;22.23;;;;;;;;;;10281176;28;20042;-71
2022/03/14 22:43:37;;;;;;;41.17;21.77;;;;;;;;;;10281362;28;20026;-72
2022/03/14 22:48:37;;;;;;;33.88;20.38;;;;;;;;;;10280575;28;20034;-75
2022/03/14 22:53:37;;;;;;;40.03;20.83;;;;;;;;;;10298033;28;20027;-74
2022/03/14 22:58:38;;;;;;;25.53;15.03;;;;;;;;;;10297400;28;20051;-74
2022/03/14 23:08:57;;;;;;;28.85;14.38;;;;;;;;;;10280467;28;20027;-71
2022/03/14 23:14:01;;;;;;;23.67;12.52;;;;;;;;;;10286924;28;20485;-75
2022/03/14 23:19:14;;;;;;;26.30;16.65;;;;;;;;;;10301207;28;20038;-73
2022/03/14 23:24:15;;;;;;;28.92;13.38;;;;;;;;;;10303958;28;20035;-76
2022/03/14 23:29:18;;;;;;;21.15;13.00;;;;;;;;;;10287798;28;20178;-76
2022/03/14 23:34:20;;;;;;;27.63;16.30;;;;;;;;;;10287566;28;20019;-72
2022/03/14 23:39:21;;;;;;;30.35;16.90;;;;;;;;;;10305164;28;20106;-70
2022/03/14 23:44:21;;;;;;;28.77;15.85;;;;;;;;;;10289565;28;20035;-74
2022/03/14 23:49:22;;;;;;;32.70;19.65;;;;;;;;;;10288324;28;20085;-72
2022/03/14 23:54:22;;;;;;;32.88;17.63;;;;;;;;;;10288034;28;20656;-74
2022/03/14 23:59:22;;;;;;;36.03;23.15;;;;;;;;;;10287828;28;20562;-70
